sensor_id;sensor_type;location;lat;lon;timestamp;P1;P2;P0
83484;PMS5003;73420;32.678;-85.380;2023-10-31T00:00:46;17;17;
83484;PMS5003;73420;32.678;-85.380;2023-10-31T00:03:11;16;15;
83484;PMS5003;73420;32.678;-85.380;2023-10-31T00:05:37;16;16;
83484;PMS5003;73420;32.678;-85.380;2023-10-31T00:08:02;25;22;
83484;PMS5003;73420;32.678;-85.380;2023-10-31T00:10:27;16;16;
83484;PMS5003;73420;32.678;-85.380;2023-10-31T00:12:52;17;16;
83484;PMS5003;73420;32.678;-85.380;2023-10-31T00:15:17;16;16;
83484;PMS5003;73420;32.678;-85.380;2023-10-31T00:17:43;17;17;
83484;PMS5003;73420;32.678;-85.380;2023-10-31T00:20:08;15;15;
83484;PMS5003;73420;32.678;-85.380;2023-10-31T00:22:33;16;15;
83484;PMS5003;73420;32.678;-85.380;2023-10-31T00:24:59;16;16;
83484;PMS5003;73420;32.678;-85.380;2023-10-31T00:27:24;13;13;
83484;PMS5003;73420;32.678;-85.380;2023-10-31T00:29:49;16;16;
83484;PMS5003;73420;32.678;-85.380;2023-10-31T00:32:14;15;14;
83484;PMS5003;73420;32.678;-85.380;2023-10-31T00:34:40;14;14;
83484;PMS5003;73420;32.678;-85.380;2023-10-31T00:37:05;15;14;
83484;PMS5003;73420;32.678;-85.380;2023-10-31T00:39:30;19;17;
83484;PMS5003;73420;32.678;-85.380;2023-10-31T00:41:55;14;14;
83484;PMS5003;73420;32.678;-85.380;2023-10-31T00:44:21;15;13;
83484;PMS5003;73420;32.678;-85.380;2023-10-31T00:46:46;16;16;
83484;PMS5003;73420;32.678;-85.380;2023-10-31T00:49:12;12;11;
83484;PMS5003;73420;32.678;-85.380;2023-10-31T00:51:37;12;12;
83484;PMS5003;73420;32.678;-85.380;2023-10-31T00:54:02;11;11;
83484;PMS5003;73420;32.678;-85.380;2023-10-31T00:56:28;12;12;
83484;PMS5003;73420;32.678;-85.380;2023-10-31T00:58:53;13;12;
83484;PMS5003;73420;32.678;-85.380;2023-10-31T01:01:18;10;10;
83484;PMS5003;73420;32.678;-85.380;2023-10-31T01:03:44;11;11;
83484;PMS5003;73420;32.678;-85.380;2023-10-31T01:06:09;13;11;
83484;PMS5003;73420;32.678;-85.380;2023-10-31T01:08:34;10;10;
83484;PMS5003;73420;32.678;-85.380;2023-10-31T01:11:00;13;12;
83484;PMS5003;73420;32.678;-85.380;2023-10-31T01:13:25;10;10;
83484;PMS5003;73420;32.678;-85.380;2023-10-31T01:15:50;11;10;
83484;PMS5003;73420;32.678;-85.380;2023-10-31T01:18:16;11;10;
83484;PMS5003;73420;32.678;-85.380;2023-10-31T01:20:41;11;10;
83484;PMS5003;73420;32.678;-85.380;2023-10-31T01:23:06;11;11;
83484;PMS5003;73420;32.678;-85.380;2023-10-31T01:25:32;9;9;
83484;PMS5003;73420;32.678;-85.380;2023-10-31T01:27:57;10;9;
83484;PMS5003;73420;32.678;-85.380;2023-10-31T01:30:23;11;11;
83484;PMS5003;73420;32.678;-85.380;2023-10-31T01:32:48;12;11;
83484;PMS5003;73420;32.678;-85.380;2023-10-31T01:35:14;11;11;
83484;PMS5003;73420;32.678;-85.380;2023-10-31T01:37:39;9;9;
83484;PMS5003;73420;32.678;-85.380;2023-10-31T01:40:05;12;11;
83484;PMS5003;73420;32.678;-85.380;2023-10-31T01:42:30;8;8;
83484;PMS5003;73420;32.678;-85.380;2023-10-31T01:44:55;10;10;
83484;PMS5003;73420;32.678;-85.380;2023-10-31T01:47:21;10;10;
83484;PMS5003;73420;32.678;-85.380;2023-10-31T01:49:46;10;9;
83484;PMS5003;73420;32.678;-85.380;2023-10-31T01:52:11;9;9;
83484;PMS5003;73420;32.678;-85.380;2023-10-31T01:54:37;10;10;
83484;PMS5003;73420;32.678;-85.380;2023-10-31T01:57:03;8;8;
83484;PMS5003;73420;32.678;-85.380;2023-10-31T01:59:27;8;7;
83484;PMS5003;73420;32.678;-85.380;2023-10-31T02:01:54;6;6;
83484;PMS5003;73420;32.678;-85.380;2023-10-31T02:04:18;6;6;
83484;PMS5003;73420;32.678;-85.380;2023-10-31T02:06:44;7;6;
83484;PMS5003;73420;32.678;-85.380;2023-10-31T02:09:10;5;5;
83484;PMS5003;73420;32.678;-85.380;2023-10-31T02:11:34;7;6;
83484;PMS5003;73420;32.678;-85.380;2023-10-31T02:14:01;8;7;
83484;PMS5003;73420;32.678;-85.380;2023-10-31T02:16:26;8;7;
83484;PMS5003;73420;32.678;-85.380;2023-10-31T02:18:50;7;7;
83484;PMS5003;73420;32.678;-85.380;2023-10-31T02:21:16;5;5;
83484;PMS5003;73420;32.678;-85.380;2023-10-31T02:23:41;5;5;
83484;PMS5003;73420;32.678;-85.380;2023-10-31T02:26:07;5;5;
83484;PMS5003;73420;32.678;-85.380;2023-10-31T02:28:33;4;4;
83484;PMS5003;73420;32.678;-85.380;2023-10-31T02:30:58;2;2;
83484;PMS5003;73420;32.678;-85.380;2023-10-31T02:33:23;4;4;
83484;PMS5003;73420;32.678;-85.380;2023-10-31T02:35:48;5;5;
83484;PMS5003;73420;32.678;-85.380;2023-10-31T02:38:14;5;4;
83484;PMS5003;73420;32.678;-85.380;2023-10-31T02:40:39;6;5;
83484;PMS5003;73420;32.678;-85.380;2023-10-31T02:43:05;4;4;
83484;PMS5003;73420;32.678;-85.380;2023-10-31T02:45:30;3;3;
83484;PMS5003;73420;32.678;-85.380;2023-10-31T02:47:56;3;3;
83484;PMS5003;73420;32.678;-85.380;2023-10-31T02:50:22;4;4;
83484;PMS5003;73420;32.678;-85.380;2023-10-31T02:52:46;2;2;
83484;PMS5003;73420;32.678;-85.380;2023-10-31T02:55:12;3;3;
83484;PMS5003;73420;32.678;-85.380;2023-10-31T02:57:37;2;2;
83484;PMS5003;73420;32.678;-85.380;2023-10-31T03:00:03;2;2;
83484;PMS5003;73420;32.678;-85.380;2023-10-31T03:02:28;2;2;
83484;PMS5003;73420;32.678;-85.380;2023-10-31T03:04:54;2;2;
83484;PMS5003;73420;32.678;-85.380;2023-10-31T03:07:20;1;1;
83484;PMS5003;73420;32.678;-85.380;2023-10-31T03:09:44;1;1;
83484;PMS5003;73420;32.678;-85.380;2023-10-31T03:12:10;2;2;
83484;PMS5003;73420;32.678;-85.380;2023-10-31T03:14:36;1;1;
83484;PMS5003;73420;32.678;-85.380;2023-10-31T03:17:03;0;0;
83484;PMS5003;73420;32.678;-85.380;2023-10-31T03:19:27;0;0;
83484;PMS5003;73420;32.678;-85.380;2023-10-31T03:21:51;1;0;
83484;PMS5003;73420;32.678;-85.380;2023-10-31T03:24:17;2;2;
83484;PMS5003;73420;32.678;-85.380;2023-10-31T03:26:43;1;1;
83484;PMS5003;73420;32.678;-85.380;2023-10-31T03:29:08;0;0;
83484;PMS5003;73420;32.678;-85.380;2023-10-31T03:31:33;2;2;
83484;PMS5003;73420;32.678;-85.380;2023-10-31T03:33:59;0;0;
83484;PMS5003;73420;32.678;-85.380;2023-10-31T03:36:24;0;0;
83484;PMS5003;73420;32.678;-85.380;2023-10-31T03:38:50;1;1;
83484;PMS5003;73420;32.678;-85.380;2023-10-31T03:41:16;2;2;
83484;PMS5003;73420;32.678;-85.380;2023-10-31T03:43:40;1;1;
83484;PMS5003;73420;32.678;-85.380;2023-10-31T03:46:06;2;2;
83484;PMS5003;73420;32.678;-85.380;2023-10-31T03:48:31;0;0;
83484;PMS5003;73420;32.678;-85.380;2023-10-31T03:50:57;1;1;
83484;PMS5003;73420;32.678;-85.380;2023-10-31T03:53:22;1;1;
83484;PMS5003;73420;32.678;-85.380;2023-10-31T03:55:48;1;1;
83484;PMS5003;73420;32.678;-85.380;2023-10-31T03:58:13;0;0;
83484;PMS5003;73420;32.678;-85.380;2023-10-31T04:00:40;1;1;
83484;PMS5003;73420;32.678;-85.380;2023-10-31T04:03:11;1;1;
83484;PMS5003;73420;32.678;-85.380;2023-10-31T04:05:30;2;2;
83484;PMS5003;73420;32.678;-85.380;2023-10-31T04:07:56;1;1;
83484;PMS5003;73420;32.678;-85.380;2023-10-31T04:10:20;1;1;
83484;PMS5003;73420;32.678;-85.380;2023-10-31T04:12:46;1;1;
83484;PMS5003;73420;32.678;-85.380;2023-10-31T04:15:12;0;0;
83484;PMS5003;73420;32.678;-85.380;2023-10-31T04:17:37;1;1;
83484;PMS5003;73420;32.678;-85.380;2023-10-31T04:20:02;1;1;
83484;PMS5003;73420;32.678;-85.380;2023-10-31T04:22:28;1;1;
83484;PMS5003;73420;32.678;-85.380;2023-10-31T04:24:53;1;1;
83484;PMS5003;73420;32.678;-85.380;2023-10-31T04:27:19;2;1;
83484;PMS5003;73420;32.678;-85.380;2023-10-31T04:29:44;2;2;
83484;PMS5003;73420;32.678;-85.380;2023-10-31T04:32:10;2;2;
83484;PMS5003;73420;32.678;-85.380;2023-10-31T04:34:36;2;2;
83484;PMS5003;73420;32.678;-85.380;2023-10-31T04:37:02;3;2;
83484;PMS5003;73420;32.678;-85.380;2023-10-31T04:39:26;0;0;
83484;PMS5003;73420;32.678;-85.380;2023-10-31T04:41:52;1;1;
83484;PMS5003;73420;32.678;-85.380;2023-10-31T04:44:18;2;2;
83484;PMS5003;73420;32.678;-85.380;2023-10-31T04:46:42;1;1;
83484;PMS5003;73420;32.678;-85.380;2023-10-31T04:49:08;1;1;
83484;PMS5003;73420;32.678;-85.380;2023-10-31T04:51:34;2;2;
83484;PMS5003;73420;32.678;-85.380;2023-10-31T04:53:58;1;1;
83484;PMS5003;73420;32.678;-85.380;2023-10-31T04:56:25;2;2;
83484;PMS5003;73420;32.678;-85.380;2023-10-31T04:58:49;2;2;
83484;PMS5003;73420;32.678;-85.380;2023-10-31T05:01:15;1;1;
83484;PMS5003;73420;32.678;-85.380;2023-10-31T05:03:42;2;2;
83484;PMS5003;73420;32.678;-85.380;2023-10-31T05:06:06;2;2;
83484;PMS5003;73420;32.678;-85.380;2023-10-31T05:08:31;1;1;
83484;PMS5003;73420;32.678;-85.380;2023-10-31T05:10:57;2;2;
83484;PMS5003;73420;32.678;-85.380;2023-10-31T05:13:22;2;2;
83484;PMS5003;73420;32.678;-85.380;2023-10-31T05:15:48;1;1;
83484;PMS5003;73420;32.678;-85.380;2023-10-31T05:18:13;2;1;
83484;PMS5003;73420;32.678;-85.380;2023-10-31T05:20:39;1;1;
83484;PMS5003;73420;32.678;-85.380;2023-10-31T05:23:04;0;0;
83484;PMS5003;73420;32.678;-85.380;2023-10-31T05:25:30;1;1;
83484;PMS5003;73420;32.678;-85.380;2023-10-31T05:27:55;1;1;
83484;PMS5003;73420;32.678;-85.380;2023-10-31T05:30:21;1;1;
83484;PMS5003;73420;32.678;-85.380;2023-10-31T05:32:46;1;1;
83484;PMS5003;73420;32.678;-85.380;2023-10-31T05:35:12;1;1;
83484;PMS5003;73420;32.678;-85.380;2023-10-31T05:37:37;1;1;
83484;PMS5003;73420;32.678;-85.380;2023-10-31T05:40:04;0;0;
83484;PMS5003;73420;32.678;-85.380;2023-10-31T05:42:29;2;2;
83484;PMS5003;73420;32.678;-85.380;2023-10-31T05:44:54;1;1;
83484;PMS5003;73420;32.678;-85.380;2023-10-31T05:47:19;1;1;
83484;PMS5003;73420;32.678;-85.380;2023-10-31T05:49:45;2;2;
83484;PMS5003;73420;32.678;-85.380;2023-10-31T05:52:10;1;1;
83484;PMS5003;73420;32.678;-85.380;2023-10-31T05:54:36;1;1;
83484;PMS5003;73420;32.678;-85.380;2023-10-31T05:57:01;1;1;
83484;PMS5003;73420;32.678;-85.380;2023-10-31T05:59:26;1;1;
83484;PMS5003;73420;32.678;-85.380;2023-10-31T06:01:53;2;1;
83484;PMS5003;73420;32.678;-85.380;2023-10-31T06:04:18;0;0;
83484;PMS5003;73420;32.678;-85.380;2023-10-31T06:06:43;1;1;
83484;PMS5003;73420;32.678;-85.380;2023-10-31T06:09:09;1;1;
83484;PMS5003;73420;32.678;-85.380;2023-10-31T06:11:34;1;1;
83484;PMS5003;73420;32.678;-85.380;2023-10-31T06:13:59;1;1;
83484;PMS5003;73420;32.678;-85.380;2023-10-31T06:16:25;1;1;
83484;PMS5003;73420;32.678;-85.380;2023-10-31T06:18:50;1;1;
83484;PMS5003;73420;32.678;-85.380;2023-10-31T06:21:16;2;2;
83484;PMS5003;73420;32.678;-85.380;2023-10-31T06:23:41;1;1;
83484;PMS5003;73420;32.678;-85.380;2023-10-31T06:26:07;2;2;
83484;PMS5003;73420;32.678;-85.380;2023-10-31T06:28:33;2;2;
83484;PMS5003;73420;32.678;-85.380;2023-10-31T06:30:58;2;2;
83484;PMS5003;73420;32.678;-85.380;2023-10-31T06:33:23;0;0;
83484;PMS5003;73420;32.678;-85.380;2023-10-31T06:35:48;1;1;
83484;PMS5003;73420;32.678;-85.380;2023-10-31T06:38:14;2;2;
83484;PMS5003;73420;32.678;-85.380;2023-10-31T06:40:39;1;1;
83484;PMS5003;73420;32.678;-85.380;2023-10-31T06:43:05;1;1;
83484;PMS5003;73420;32.678;-85.380;2023-10-31T06:45:30;1;1;
83484;PMS5003;73420;32.678;-85.380;2023-10-31T06:47:56;1;1;
83484;PMS5003;73420;32.678;-85.380;2023-10-31T06:50:21;1;1;
83484;PMS5003;73420;32.678;-85.380;2023-10-31T06:52:47;2;2;
83484;PMS5003;73420;32.678;-85.380;2023-10-31T06:55:12;1;1;
83484;PMS5003;73420;32.678;-85.380;2023-10-31T06:57:38;1;1;
83484;PMS5003;73420;32.678;-85.380;2023-10-31T07:00:04;1;1;
83484;PMS5003;73420;32.678;-85.380;2023-10-31T07:02:29;2;2;
83484;PMS5003;73420;32.678;-85.380;2023-10-31T07:04:54;1;1;
83484;PMS5003;73420;32.678;-85.380;2023-10-31T07:07:20;1;1;
83484;PMS5003;73420;32.678;-85.380;2023-10-31T07:09:45;1;1;
83484;PMS5003;73420;32.678;-85.380;2023-10-31T07:12:13;3;2;
83484;PMS5003;73420;32.678;-85.380;2023-10-31T07:14:36;2;2;
83484;PMS5003;73420;32.678;-85.380;2023-10-31T07:17:02;2;2;
83484;PMS5003;73420;32.678;-85.380;2023-10-31T07:19:28;2;2;
83484;PMS5003;73420;32.678;-85.380;2023-10-31T07:21:52;3;2;
83484;PMS5003;73420;32.678;-85.380;2023-10-31T07:24:18;0;0;
83484;PMS5003;73420;32.678;-85.380;2023-10-31T07:26:44;2;2;
83484;PMS5003;73420;32.678;-85.380;2023-10-31T07:29:10;2;2;
83484;PMS5003;73420;32.678;-85.380;2023-10-31T07:31:34;1;1;
83484;PMS5003;73420;32.678;-85.380;2023-10-31T07:34:00;4;3;
83484;PMS5003;73420;32.678;-85.380;2023-10-31T07:36:25;2;2;
83484;PMS5003;73420;32.678;-85.380;2023-10-31T07:38:51;2;2;
83484;PMS5003;73420;32.678;-85.380;2023-10-31T07:41:16;1;1;
83484;PMS5003;73420;32.678;-85.380;2023-10-31T07:43:42;2;2;
83484;PMS5003;73420;32.678;-85.380;2023-10-31T07:46:07;0;0;
83484;PMS5003;73420;32.678;-85.380;2023-10-31T07:48:33;1;1;
83484;PMS5003;73420;32.678;-85.380;2023-10-31T07:50:59;1;1;
83484;PMS5003;73420;32.678;-85.380;2023-10-31T07:53:29;2;2;
83484;PMS5003;73420;32.678;-85.380;2023-10-31T07:55:49;1;1;
83484;PMS5003;73420;32.678;-85.380;2023-10-31T07:58:15;2;2;
83484;PMS5003;73420;32.678;-85.380;2023-10-31T08:00:40;3;3;
83484;PMS5003;73420;32.678;-85.380;2023-10-31T08:03:05;3;3;
83484;PMS5003;73420;32.678;-85.380;2023-10-31T08:05:31;1;1;
83484;PMS5003;73420;32.678;-85.380;2023-10-31T08:07:56;3;3;
83484;PMS5003;73420;32.678;-85.380;2023-10-31T08:10:23;3;3;
83484;PMS5003;73420;32.678;-85.380;2023-10-31T08:12:47;1;1;
83484;PMS5003;73420;32.678;-85.380;2023-10-31T08:15:14;3;3;
83484;PMS5003;73420;32.678;-85.380;2023-10-31T08:17:39;1;1;
83484;PMS5003;73420;32.678;-85.380;2023-10-31T08:20:04;2;2;
83484;PMS5003;73420;32.678;-85.380;2023-10-31T08:22:29;4;3;
83484;PMS5003;73420;32.678;-85.380;2023-10-31T08:24:55;2;2;
83484;PMS5003;73420;32.678;-85.380;2023-10-31T08:27:20;1;1;
83484;PMS5003;73420;32.678;-85.380;2023-10-31T08:29:46;1;1;
83484;PMS5003;73420;32.678;-85.380;2023-10-31T08:32:11;4;3;
83484;PMS5003;73420;32.678;-85.380;2023-10-31T08:34:37;2;1;
83484;PMS5003;73420;32.678;-85.380;2023-10-31T08:37:02;2;2;
83484;PMS5003;73420;32.678;-85.380;2023-10-31T08:39:28;2;2;
83484;PMS5003;73420;32.678;-85.380;2023-10-31T08:41:54;3;3;
83484;PMS5003;73420;32.678;-85.380;2023-10-31T08:44:18;2;2;
83484;PMS5003;73420;32.678;-85.380;2023-10-31T08:46:44;3;2;
83484;PMS5003;73420;32.678;-85.380;2023-10-31T08:49:09;2;2;
83484;PMS5003;73420;32.678;-85.380;2023-10-31T08:51:36;2;2;
83484;PMS5003;73420;32.678;-85.380;2023-10-31T08:54:03;2;2;
83484;PMS5003;73420;32.678;-85.380;2023-10-31T08:56:26;3;3;
83484;PMS5003;73420;32.678;-85.380;2023-10-31T08:58:53;3;3;
83484;PMS5003;73420;32.678;-85.380;2023-10-31T09:01:17;1;1;
83484;PMS5003;73420;32.678;-85.380;2023-10-31T09:03:42;2;2;
83484;PMS5003;73420;32.678;-85.380;2023-10-31T09:06:08;2;2;
83484;PMS5003;73420;32.678;-85.380;2023-10-31T09:08:34;2;2;
83484;PMS5003;73420;32.678;-85.380;2023-10-31T09:10:59;2;2;
83484;PMS5003;73420;32.678;-85.380;2023-10-31T09:13:24;2;2;
83484;PMS5003;73420;32.678;-85.380;2023-10-31T09:15:51;2;2;
83484;PMS5003;73420;32.678;-85.380;2023-10-31T09:18:16;2;2;
83484;PMS5003;73420;32.678;-85.380;2023-10-31T09:20:41;2;2;
83484;PMS5003;73420;32.678;-85.380;2023-10-31T09:23:07;2;2;
83484;PMS5003;73420;32.678;-85.380;2023-10-31T09:25:32;2;2;
83484;PMS5003;73420;32.678;-85.380;2023-10-31T09:27:57;2;2;
83484;PMS5003;73420;32.678;-85.380;2023-10-31T09:30:23;1;1;
83484;PMS5003;73420;32.678;-85.380;2023-10-31T09:32:48;2;2;
83484;PMS5003;73420;32.678;-85.380;2023-10-31T09:35:16;2;2;
83484;PMS5003;73420;32.678;-85.380;2023-10-31T09:37:39;2;2;
83484;PMS5003;73420;32.678;-85.380;2023-10-31T09:40:05;1;1;
83484;PMS5003;73420;32.678;-85.380;2023-10-31T09:42:30;2;2;
83484;PMS5003;73420;32.678;-85.380;2023-10-31T09:44:56;1;1;
83484;PMS5003;73420;32.678;-85.380;2023-10-31T09:47:21;2;2;
83484;PMS5003;73420;32.678;-85.380;2023-10-31T09:49:46;3;3;
83484;PMS5003;73420;32.678;-85.380;2023-10-31T09:52:12;2;2;
83484;PMS5003;73420;32.678;-85.380;2023-10-31T09:54:38;2;2;
83484;PMS5003;73420;32.678;-85.380;2023-10-31T09:57:03;2;2;
83484;PMS5003;73420;32.678;-85.380;2023-10-31T09:59:28;2;2;
83484;PMS5003;73420;32.678;-85.380;2023-10-31T10:01:54;2;2;
83484;PMS5003;73420;32.678;-85.380;2023-10-31T10:04:19;2;2;
83484;PMS5003;73420;32.678;-85.380;2023-10-31T10:06:49;2;2;
83484;PMS5003;73420;32.678;-85.380;2023-10-31T10:09:11;1;1;
83484;PMS5003;73420;32.678;-85.380;2023-10-31T10:11:36;1;1;
83484;PMS5003;73420;32.678;-85.380;2023-10-31T10:14:01;2;2;
83484;PMS5003;73420;32.678;-85.380;2023-10-31T10:16:31;2;2;
83484;PMS5003;73420;32.678;-85.380;2023-10-31T10:18:52;2;2;
83484;PMS5003;73420;32.678;-85.380;2023-10-31T10:21:18;0;0;
83484;PMS5003;73420;32.678;-85.380;2023-10-31T10:23:44;1;1;
83484;PMS5003;73420;32.678;-85.380;2023-10-31T10:26:09;2;2;
83484;PMS5003;73420;32.678;-85.380;2023-10-31T10:28:34;2;1;
83484;PMS5003;73420;32.678;-85.380;2023-10-31T10:31:05;1;1;
83484;PMS5003;73420;32.678;-85.380;2023-10-31T10:33:25;2;2;
83484;PMS5003;73420;32.678;-85.380;2023-10-31T10:35:51;1;1;
83484;PMS5003;73420;32.678;-85.380;2023-10-31T10:38:17;2;2;
83484;PMS5003;73420;32.678;-85.380;2023-10-31T10:40:43;1;1;
83484;PMS5003;73420;32.678;-85.380;2023-10-31T10:43:09;1;1;
83484;PMS5003;73420;32.678;-85.380;2023-10-31T10:45:33;2;2;
83484;PMS5003;73420;32.678;-85.380;2023-10-31T10:47:58;2;2;
83484;PMS5003;73420;32.678;-85.380;2023-10-31T10:50:25;4;4;
83484;PMS5003;73420;32.678;-85.380;2023-10-31T10:52:51;1;1;
83484;PMS5003;73420;32.678;-85.380;2023-10-31T10:55:21;1;1;
83484;PMS5003;73420;32.678;-85.380;2023-10-31T10:57:42;2;2;
83484;PMS5003;73420;32.678;-85.380;2023-10-31T11:00:06;1;1;
83484;PMS5003;73420;32.678;-85.380;2023-10-31T11:02:32;2;2;
83484;PMS5003;73420;32.678;-85.380;2023-10-31T11:04:57;2;2;
83484;PMS5003;73420;32.678;-85.380;2023-10-31T11:07:23;2;2;
83484;PMS5003;73420;32.678;-85.380;2023-10-31T11:09:48;2;2;
83484;PMS5003;73420;32.678;-85.380;2023-10-31T11:12:13;3;3;
83484;PMS5003;73420;32.678;-85.380;2023-10-31T11:14:39;2;2;
83484;PMS5003;73420;32.678;-85.380;2023-10-31T11:17:06;2;2;
83484;PMS5003;73420;32.678;-85.380;2023-10-31T11:19:35;4;3;
83484;PMS5003;73420;32.678;-85.380;2023-10-31T11:21:57;2;2;
83484;PMS5003;73420;32.678;-85.380;2023-10-31T11:24:21;2;2;
83484;PMS5003;73420;32.678;-85.380;2023-10-31T11:26:50;2;2;
83484;PMS5003;73420;32.678;-85.380;2023-10-31T11:29:12;2;2;
83484;PMS5003;73420;32.678;-85.380;2023-10-31T11:31:38;2;2;
83484;PMS5003;73420;32.678;-85.380;2023-10-31T11:34:03;2;2;
83484;PMS5003;73420;32.678;-85.380;2023-10-31T11:36:31;2;2;
83484;PMS5003;73420;32.678;-85.380;2023-10-31T11:38:57;3;3;
83484;PMS5003;73420;32.678;-85.380;2023-10-31T11:41:19;1;1;
83484;PMS5003;73420;32.678;-85.380;2023-10-31T11:43:51;3;3;
83484;PMS5003;73420;32.678;-85.380;2023-10-31T11:48:45;3;3;
83484;PMS5003;73420;32.678;-85.380;2023-10-31T11:51:03;1;1;
83484;PMS5003;73420;32.678;-85.380;2023-10-31T11:53:27;4;4;
83484;PMS5003;73420;32.678;-85.380;2023-10-31T11:55:53;2;2;
83484;PMS5003;73420;32.678;-85.380;2023-10-31T11:58:18;2;2;
83484;PMS5003;73420;32.678;-85.380;2023-10-31T12:00:44;3;3;
83484;PMS5003;73420;32.678;-85.380;2023-10-31T12:03:09;2;2;
83484;PMS5003;73420;32.678;-85.380;2023-10-31T12:05:34;2;2;
83484;PMS5003;73420;32.678;-85.380;2023-10-31T12:08:01;3;3;
83484;PMS5003;73420;32.678;-85.380;2023-10-31T12:10:26;2;2;
83484;PMS5003;73420;32.678;-85.380;2023-10-31T12:12:51;3;2;
83484;PMS5003;73420;32.678;-85.380;2023-10-31T12:15:16;4;3;
83484;PMS5003;73420;32.678;-85.380;2023-10-31T12:17:43;2;2;
83484;PMS5003;73420;32.678;-85.380;2023-10-31T12:20:08;2;2;
83484;PMS5003;73420;32.678;-85.380;2023-10-31T12:22:33;2;2;
83484;PMS5003;73420;32.678;-85.380;2023-10-31T12:25:02;2;2;
83484;PMS5003;73420;32.678;-85.380;2023-10-31T12:27:24;2;2;
83484;PMS5003;73420;32.678;-85.380;2023-10-31T12:32:17;2;2;
83484;PMS5003;73420;32.678;-85.380;2023-10-31T12:34:43;4;4;
83484;PMS5003;73420;32.678;-85.380;2023-10-31T12:37:07;3;3;
83484;PMS5003;73420;32.678;-85.380;2023-10-31T12:39:31;1;1;
83484;PMS5003;73420;32.678;-85.380;2023-10-31T12:41:57;2;2;
83484;PMS5003;73420;32.678;-85.380;2023-10-31T12:44:23;2;2;
83484;PMS5003;73420;32.678;-85.380;2023-10-31T12:46:48;2;2;
83484;PMS5003;73420;32.678;-85.380;2023-10-31T12:49:17;3;3;
83484;PMS5003;73420;32.678;-85.380;2023-10-31T12:51:43;2;2;
83484;PMS5003;73420;32.678;-85.380;2023-10-31T12:54:05;2;2;
83484;PMS5003;73420;32.678;-85.380;2023-10-31T12:56:38;3;2;
83484;PMS5003;73420;32.678;-85.380;2023-10-31T12:58:57;2;2;
83484;PMS5003;73420;32.678;-85.380;2023-10-31T13:01:23;0;0;
83484;PMS5003;73420;32.678;-85.380;2023-10-31T13:03:51;1;1;
83484;PMS5003;73420;32.678;-85.380;2023-10-31T13:06:14;2;2;
83484;PMS5003;73420;32.678;-85.380;2023-10-31T13:08:38;2;2;
83484;PMS5003;73420;32.678;-85.380;2023-10-31T13:11:04;2;2;
83484;PMS5003;73420;32.678;-85.380;2023-10-31T13:13:29;2;2;
83484;PMS5003;73420;32.678;-85.380;2023-10-31T13:15:54;3;3;
83484;PMS5003;73420;32.678;-85.380;2023-10-31T13:18:20;2;2;
83484;PMS5003;73420;32.678;-85.380;2023-10-31T13:20:45;3;3;
83484;PMS5003;73420;32.678;-85.380;2023-10-31T13:23:11;1;1;
83484;PMS5003;73420;32.678;-85.380;2023-10-31T13:25:37;1;1;
83484;PMS5003;73420;32.678;-85.380;2023-10-31T13:28:02;2;2;
83484;PMS5003;73420;32.678;-85.380;2023-10-31T13:30:28;0;0;
83484;PMS5003;73420;32.678;-85.380;2023-10-31T13:32:53;0;0;
83484;PMS5003;73420;32.678;-85.380;2023-10-31T13:35:19;2;1;
83484;PMS5003;73420;32.678;-85.380;2023-10-31T13:37:44;2;2;
83484;PMS5003;73420;32.678;-85.380;2023-10-31T13:40:09;1;1;
83484;PMS5003;73420;32.678;-85.380;2023-10-31T13:42:35;1;1;
83484;PMS5003;73420;32.678;-85.380;2023-10-31T13:45:00;1;1;
83484;PMS5003;73420;32.678;-85.380;2023-10-31T13:47:26;2;1;
83484;PMS5003;73420;32.678;-85.380;2023-10-31T13:49:51;2;2;
83484;PMS5003;73420;32.678;-85.380;2023-10-31T13:52:17;3;2;
83484;PMS5003;73420;32.678;-85.380;2023-10-31T13:54:42;1;1;
83484;PMS5003;73420;32.678;-85.380;2023-10-31T13:57:08;1;1;
83484;PMS5003;73420;32.678;-85.380;2023-10-31T13:59:33;1;1;
83484;PMS5003;73420;32.678;-85.380;2023-10-31T14:01:58;0;0;
83484;PMS5003;73420;32.678;-85.380;2023-10-31T14:04:25;2;2;
83484;PMS5003;73420;32.678;-85.380;2023-10-31T14:06:49;1;1;
83484;PMS5003;73420;32.678;-85.380;2023-10-31T14:09:15;0;0;
83484;PMS5003;73420;32.678;-85.380;2023-10-31T14:11:41;1;1;
83484;PMS5003;73420;32.678;-85.380;2023-10-31T14:14:06;1;1;
83484;PMS5003;73420;32.678;-85.380;2023-10-31T14:16:32;1;1;
83484;PMS5003;73420;32.678;-85.380;2023-10-31T14:18:57;1;1;
83484;PMS5003;73420;32.678;-85.380;2023-10-31T14:21:23;1;1;
83484;PMS5003;73420;32.678;-85.380;2023-10-31T14:23:48;2;2;
83484;PMS5003;73420;32.678;-85.380;2023-10-31T14:26:14;2;2;
83484;PMS5003;73420;32.678;-85.380;2023-10-31T14:28:39;2;2;
83484;PMS5003;73420;32.678;-85.380;2023-10-31T14:31:04;2;1;
83484;PMS5003;73420;32.678;-85.380;2023-10-31T14:33:30;1;1;
83484;PMS5003;73420;32.678;-85.380;2023-10-31T14:35:55;1;1;
83484;PMS5003;73420;32.678;-85.380;2023-10-31T14:38:21;0;0;
83484;PMS5003;73420;32.678;-85.380;2023-10-31T14:40:46;3;2;
83484;PMS5003;73420;32.678;-85.380;2023-10-31T14:43:12;1;1;
83484;PMS5003;73420;32.678;-85.380;2023-10-31T14:45:37;0;0;
83484;PMS5003;73420;32.678;-85.380;2023-10-31T14:48:03;1;1;
83484;PMS5003;73420;32.678;-85.380;2023-10-31T14:50:30;2;2;
83484;PMS5003;73420;32.678;-85.380;2023-10-31T14:52:53;2;2;
83484;PMS5003;73420;32.678;-85.380;2023-10-31T14:55:20;1;1;
83484;PMS5003;73420;32.678;-85.380;2023-10-31T14:57:49;2;2;
83484;PMS5003;73420;32.678;-85.380;2023-10-31T15:00:11;2;2;
83484;PMS5003;73420;32.678;-85.380;2023-10-31T15:02:35;1;1;
83484;PMS5003;73420;32.678;-85.380;2023-10-31T15:05:01;1;1;
83484;PMS5003;73420;32.678;-85.380;2023-10-31T15:07:26;1;1;
83484;PMS5003;73420;32.678;-85.380;2023-10-31T15:09:52;2;2;
83484;PMS5003;73420;32.678;-85.380;2023-10-31T15:12:17;1;1;
83484;PMS5003;73420;32.678;-85.380;2023-10-31T15:14:42;1;1;
83484;PMS5003;73420;32.678;-85.380;2023-10-31T15:17:08;2;1;
83484;PMS5003;73420;32.678;-85.380;2023-10-31T15:19:35;2;2;
83484;PMS5003;73420;32.678;-85.380;2023-10-31T15:21:59;1;1;
83484;PMS5003;73420;32.678;-85.380;2023-10-31T15:24:25;1;1;
83484;PMS5003;73420;32.678;-85.380;2023-10-31T15:26:50;2;2;
83484;PMS5003;73420;32.678;-85.380;2023-10-31T15:29:15;1;1;
83484;PMS5003;73420;32.678;-85.380;2023-10-31T15:31:42;1;1;
83484;PMS5003;73420;32.678;-85.380;2023-10-31T15:34:06;2;2;
83484;PMS5003;73420;32.678;-85.380;2023-10-31T15:36:33;2;2;
83484;PMS5003;73420;32.678;-85.380;2023-10-31T15:38:57;0;0;
83484;PMS5003;73420;32.678;-85.380;2023-10-31T15:41:23;2;2;
83484;PMS5003;73420;32.678;-85.380;2023-10-31T15:43:48;2;2;
83484;PMS5003;73420;32.678;-85.380;2023-10-31T15:46:13;1;1;
83484;PMS5003;73420;32.678;-85.380;2023-10-31T15:48:39;1;1;
83484;PMS5003;73420;32.678;-85.380;2023-10-31T15:51:05;1;1;
83484;PMS5003;73420;32.678;-85.380;2023-10-31T15:53:30;5;5;
83484;PMS5003;73420;32.678;-85.380;2023-10-31T15:55:56;0;0;
83484;PMS5003;73420;32.678;-85.380;2023-10-31T15:58:21;1;1;
83484;PMS5003;73420;32.678;-85.380;2023-10-31T16:00:48;2;2;
83484;PMS5003;73420;32.678;-85.380;2023-10-31T16:03:12;3;3;
83484;PMS5003;73420;32.678;-85.380;2023-10-31T16:05:38;2;2;